Time;durP1;ratioP1;P1;durP2;ratioP2;P2;SDS_P1;SDS_P2;PMS_P1;PMS_P2;Temp;Humidity;BMP_temperature;BMP_pressure;BME280_temperature;BME280_humidity;BME280_pressure;Samples;Min_cycle;Max_cycle;Signal;HPM_P1;HPM_P2
2022/06/19 00:00:25;;;;;;;16.77;6.18;;;18.10;99.90;;;;;;5111654;28;20047;-72
2022/06/19 00:02:52;;;;;;;8.93;4.47;;;18.10;99.90;;;;;;5111475;28;20035;-72
2022/06/19 00:05:19;;;;;;;9.95;5.05;;;18.00;99.90;;;;;;5112192;28;20067;-72
2022/06/19 00:07:46;;;;;;;19.85;5.90;;;17.90;99.90;;;;;;5112216;28;20047;-71
2022/06/19 00:10:13;;;;;;;17.40;6.28;;;17.90;99.90;;;;;;5111401;28;20047;-73
2022/06/19 00:12:40;;;;;;;14.35;6.18;;;17.90;99.90;;;;;;5111138;28;20506;-72
2022/06/19 00:15:07;;;;;;;27.77;7.47;;;17.90;99.90;;;;;;5111864;28;20062;-72
2022/06/19 00:17:34;;;;;;;16.63;4.00;;;17.90;99.90;;;;;;5111999;28;20036;-73
2022/06/19 00:20:04;;;;;;;12.20;4.13;;;17.90;99.90;;;;;;5110822;28;20040;-72
2022/06/19 00:22:30;;;;;;;14.30;3.95;;;17.80;99.90;;;;;;5111787;28;20039;-73
2022/06/19 00:24:58;;;;;;;11.93;3.90;;;17.80;99.90;;;;;;5111659;28;20039;-72
2022/06/19 00:27:25;;;;;;;8.90;4.50;;;17.70;99.90;;;;;;5111490;28;20048;-72
2022/06/19 00:29:53;;;;;;;14.13;4.70;;;17.80;99.90;;;;;;5101980;28;20056;-72
2022/06/19 00:32:20;;;;;;;;;;;17.80;99.90;;;;;;5111859;28;20050;-72
2022/06/19 00:34:47;;;;;;;17.05;6.38;;;17.90;99.90;;;;;;5111863;28;19943;-72
2022/06/19 00:37:14;;;;;;;22.35;5.95;;;17.80;99.90;;;;;;5111549;28;20115;-72
2022/06/19 00:39:42;;;;;;;20.65;6.20;;;17.80;99.90;;;;;;5110798;28;20071;-72
2022/06/19 00:42:12;;;;;;;17.65;6.03;;;17.90;99.90;;;;;;5110894;28;20492;-72
2022/06/19 00:44:40;;;;;;;19.35;6.25;;;17.90;99.90;;;;;;5111736;28;20388;-72
2022/06/19 00:47:17;;;;;;;20.92;5.93;;;17.90;99.90;;;;;;5111454;28;20488;-72
2022/06/19 00:50:04;;;;;;;13.75;5.47;;;17.90;99.90;;;;;;5110692;28;20040;-72
2022/06/19 00:52:38;;;;;;;14.52;5.95;;;17.90;99.90;;;;;;5111262;28;20046;-72
2022/06/19 00:55:27;;;;;;;20.90;5.43;;;17.80;99.90;;;;;;5111581;28;20044;-71
2022/06/19 00:58:00;;;;;;;14.50;4.90;;;17.70;99.90;;;;;;5111627;28;20050;-71
2022/06/19 01:00:29;;;;;;;12.43;4.93;;;17.70;99.90;;;;;;5115457;28;20081;-72
2022/06/19 01:03:01;;;;;;;15.85;5.05;;;17.60;99.90;;;;;;5115549;28;20047;-71
2022/06/19 01:05:29;;;;;;;13.00;4.63;;;17.40;99.90;;;;;;5113340;28;20100;-72
2022/06/19 01:08:00;;;;;;;13.10;4.53;;;17.30;99.90;;;;;;5115496;28;20051;-71
2022/06/19 01:10:27;;;;;;;16.35;4.68;;;17.20;99.90;;;;;;5114929;28;20111;-72
2022/06/19 01:12:56;;;;;;;25.95;5.88;;;17.10;99.90;;;;;;5113436;28;20111;-72
2022/06/19 01:15:25;;;;;;;19.13;4.82;;;17.10;99.90;;;;;;5110295;28;20054;-71
2022/06/19 01:17:59;;;;;;;22.02;5.13;;;17.20;99.90;;;;;;5115578;28;20044;-71
2022/06/19 01:20:27;;;;;;;11.25;4.20;;;17.20;99.90;;;;;;5115037;28;20117;-72
2022/06/19 01:23:16;;;;;;;15.02;4.47;;;17.10;99.90;;;;;;5114634;28;20047;-71
2022/06/19 01:25:43;;;;;;;12.43;5.38;;;17.10;99.90;;;;;;5114887;28;20050;-72
2022/06/19 01:31:03;;;;;;;13.38;4.50;;;17.10;99.90;;;;;;5105693;28;20031;-71
2022/06/19 01:33:38;;;;;;;19.45;5.57;;;17.20;99.90;;;;;;5115241;28;20050;-72
2022/06/19 01:36:06;;;;;;;13.18;5.22;;;17.30;99.90;;;;;;5115330;28;20039;-72
2022/06/19 01:38:35;;;;;;;14.73;5.43;;;17.40;99.90;;;;;;5129657;22;20043;-74
2022/06/19 01:41:08;;;;;;;20.25;5.20;;;17.50;99.90;;;;;;5080131;28;20086;-74
2022/06/19 01:43:35;;;;;;;18.67;5.40;;;17.50;99.90;;;;;;5085872;28;20416;-74
2022/06/19 01:46:04;;;;;;;23.27;5.50;;;17.50;99.90;;;;;;5073263;28;20044;-74
2022/06/19 01:48:32;;;;;;;16.05;5.47;;;17.50;99.90;;;;;;5082259;28;20087;-75
2022/06/19 01:51:03;;;;;;;16.50;4.70;;;17.40;99.90;;;;;;5094092;28;20044;-75
2022/06/19 01:53:38;;;;;;;13.93;4.63;;;17.30;99.90;;;;;;5094515;28;20040;-75
2022/06/19 01:56:08;;;;;;;9.73;3.78;;;17.20;99.90;;;;;;5097786;28;20457;-74
2022/06/19 01:58:38;;;;;;;17.48;4.90;;;17.10;99.90;;;;;;5097556;28;20043;-75
2022/06/19 02:01:08;;;;;;;12.07;4.00;;;17.00;99.90;;;;;;5114215;28;20051;-75
2022/06/19 02:03:44;;;;;;;15.93;4.03;;;16.90;99.90;;;;;;5113317;28;20078;-75
2022/06/19 02:06:15;;;;;;;18.67;4.82;;;16.80;99.90;;;;;;5099837;28;20040;-74
2022/06/19 02:08:43;;;;;;;16.42;5.18;;;16.80;99.90;;;;;;5114175;28;20066;-74
2022/06/19 02:11:11;;;;;;;11.65;4.55;;;16.70;99.90;;;;;;5112612;28;20062;-73
2022/06/19 02:13:40;;;;;;;17.75;5.05;;;16.70;99.90;;;;;;5094599;28;20036;-74
2022/06/19 02:16:11;;;;;;;12.85;4.63;;;16.60;99.90;;;;;;5114445;28;20089;-74
2022/06/19 02:18:41;;;;;;;16.73;5.75;;;16.60;99.90;;;;;;5114545;28;20043;-74
2022/06/19 02:21:18;;;;;;;22.50;6.22;;;16.70;99.90;;;;;;5108075;28;20048;-74
2022/06/19 02:23:46;;;;;;;19.70;5.30;;;16.70;99.90;;;;;;5103774;28;20040;-74
2022/06/19 02:26:13;;;;;;;15.65;5.75;;;16.70;99.90;;;;;;5114417;28;20039;-73
2022/06/19 02:28:45;;;;;;;20.42;5.40;;;16.70;99.90;;;;;;5114145;28;20047;-74
2022/06/19 02:31:13;;;;;;;13.63;4.70;;;16.60;99.90;;;;;;5107257;28;20050;-75
2022/06/19 02:33:53;;;;;;;14.55;4.25;;;16.50;99.90;;;;;;5102980;28;20044;-74
2022/06/19 02:36:32;;;;;;;19.25;4.50;;;16.40;99.90;;;;;;5114186;28;20043;-74
2022/06/19 02:39:11;;;;;;;12.07;5.47;;;16.30;99.90;;;;;;5109154;28;20378;-74
2022/06/19 02:41:45;;;;;;;21.70;5.65;;;16.30;99.90;;;;;;5086935;28;20524;-74
2022/06/19 02:44:12;;;;;;;17.42;6.63;;;16.40;99.90;;;;;;5114057;28;20047;-74
2022/06/19 02:46:39;;;;;;;22.77;5.53;;;16.40;99.90;;;;;;5113814;28;20043;-74
2022/06/19 02:49:05;;;;;;;16.77;5.65;;;16.40;99.90;;;;;;5099769;28;20036;-74
2022/06/19 02:51:32;;;;;;;13.13;5.40;;;16.30;99.90;;;;;;5109779;28;20450;-74
2022/06/19 02:53:59;;;;;;;9.65;4.32;;;16.20;99.90;;;;;;5113811;28;20040;-74
2022/06/19 02:56:25;;;;;;;8.80;3.83;;;16.10;99.90;;;;;;5112397;28;20047;-74
2022/06/19 02:58:52;;;;;;;9.52;4.00;;;16.00;99.90;;;;;;5096724;28;20115;-74
2022/06/19 03:01:19;;;;;;;13.57;4.20;;;15.90;99.90;;;;;;5113324;28;20503;-74
2022/06/19 03:03:46;;;;;;;13.43;4.75;;;15.80;99.90;;;;;;5112371;28;20047;-74
2022/06/19 03:06:13;;;;;;;17.27;4.95;;;15.80;99.90;;;;;;5099660;28;20044;-74
2022/06/19 03:08:39;;;;;;;11.38;4.63;;;15.80;99.90;;;;;;5110475;28;20039;-73
2022/06/19 03:11:06;;;;;;;15.55;4.93;;;15.90;99.90;;;;;;5113225;28;20057;-74
2022/06/19 03:13:33;;;;;;;16.98;4.50;;;15.90;99.90;;;;;;5103685;28;20044;-74
2022/06/19 03:16:02;;;;;;;20.48;5.18;;;16.00;99.90;;;;;;5105112;28;20096;-74
2022/06/19 03:18:31;;;;;;;17.92;5.65;;;16.20;99.90;;;;;;5113283;28;20071;-73
2022/06/19 03:20:57;;;;;;;15.73;5.18;;;16.20;99.90;;;;;;5108172;28;20407;-73
2022/06/19 03:23:24;;;;;;;22.05;5.88;;;16.30;99.90;;;;;;5099823;28;20096;-74
2022/06/19 03:25:52;;;;;;;13.38;4.85;;;16.40;99.90;;;;;;5113419;28;20450;-74
2022/06/19 03:28:19;;;;;;;10.32;4.00;;;16.30;99.90;;;;;;5112853;28;20055;-74
2022/06/19 03:30:49;;;;;;;20.27;4.22;;;16.20;99.90;;;;;;5110380;28;20097;-73
2022/06/19 03:33:16;;;;;;;16.85;4.22;;;16.00;99.90;;;;;;5098527;28;20039;-74
2022/06/19 03:35:43;;;;;;;12.55;4.88;;;15.90;99.90;;;;;;5113072;28;20046;-74
2022/06/19 03:38:09;;;;;;;22.90;6.05;;;15.90;99.90;;;;;;5113207;28;20085;-73
2022/06/19 03:40:36;;;;;;;14.35;5.55;;;16.00;99.90;;;;;;5102316;28;20763;-74
2022/06/19 03:43:03;;;;;;;15.60;4.78;;;16.20;99.90;;;;;;5104882;28;20500;-74
2022/06/19 03:45:30;;;;;;;15.55;4.18;;;16.20;99.90;;;;;;5112746;28;20055;-74
2022/06/19 03:47:56;;;;;;;20.15;4.35;;;16.00;99.90;;;;;;5111703;28;20052;-74
2022/06/19 03:50:23;;;;;;;13.63;4.35;;;15.90;99.90;;;;;;5096721;28;20044;-73
2022/06/19 03:52:50;;;;;;;19.55;4.40;;;15.80;99.90;;;;;;5111382;28;20092;-74
2022/06/19 03:55:17;;;;;;;14.77;5.50;;;15.70;99.90;;;;;;5112634;28;20047;-74
2022/06/19 03:57:43;;;;;;;17.75;5.18;;;15.70;99.90;;;;;;5111322;28;20071;-74
2022/06/19 04:00:16;;;;;;;19.85;5.25;;;16.00;99.90;;;;;;5098428;28;20048;-73
2022/06/19 04:02:44;;;;;;;22.92;5.43;;;16.20;99.90;;;;;;5110299;28;20058;-74
2022/06/19 04:05:12;;;;;;;21.75;5.65;;;16.30;99.90;;;;;;5112375;28;20047;-74
2022/06/19 04:07:47;;;;;;;13.77;5.40;;;16.40;99.90;;;;;;5094180;28;20105;-74
2022/06/19 04:10:15;;;;;;;22.00;4.30;;;16.40;99.90;;;;;;5111908;28;20511;-75
2022/06/19 04:12:48;;;;;;;16.90;5.00;;;16.40;99.90;;;;;;5112141;28;20039;-74
2022/06/19 04:15:15;;;;;;;10.90;5.30;;;16.30;99.90;;;;;;5105424;28;20040;-73
2022/06/19 04:17:42;;;;;;;16.50;6.00;;;16.40;99.90;;;;;;5101352;28;20641;-73
2022/06/19 04:20:10;;;;;;;17.92;5.65;;;16.50;99.90;;;;;;5111768;28;20044;-73
2022/06/19 04:22:38;;;;;;;13.18;5.35;;;16.70;99.90;;;;;;5112178;28;20058;-74
2022/06/19 04:25:06;;;;;;;17.27;5.53;;;16.80;99.90;;;;;;5098043;28;20040;-73
2022/06/19 04:27:34;;;;;;;18.48;6.38;;;16.90;99.90;;;;;;5108267;28;20097;-73
2022/06/19 04:30:01;;;;;;;16.83;5.60;;;16.90;99.90;;;;;;5111675;28;20049;-74
2022/06/19 04:32:29;;;;;;;19.77;6.00;;;17.00;99.90;;;;;;5100513;28;20044;-74
2022/06/19 04:34:56;;;;;;;14.32;5.15;;;17.00;99.90;;;;;;5100372;28;20036;-74
2022/06/19 04:37:22;;;;;;;15.43;4.57;;;17.10;99.90;;;;;;5101719;28;20442;-73
2022/06/19 04:39:49;;;;;;;25.00;5.72;;;17.20;99.90;;;;;;5101931;28;20082;-74
2022/06/19 04:42:16;;;;;;;20.02;5.20;;;17.20;99.90;;;;;;5099280;28;20039;-74
2022/06/19 04:44:42;;;;;;;17.67;4.95;;;17.30;99.90;;;;;;5103003;28;20040;-74
2022/06/19 04:47:09;;;;;;;20.42;5.32;;;17.40;99.90;;;;;;5100558;28;20667;-73
2022/06/19 04:49:36;;;;;;;16.33;5.30;;;17.40;99.90;;;;;;5101251;28;20049;-73
2022/06/19 04:52:03;;;;;;;20.90;5.35;;;17.40;99.90;;;;;;5101971;28;20046;-74
2022/06/19 04:54:30;;;;;;;19.52;5.30;;;17.40;99.90;;;;;;5101824;28;20036;-74
2022/06/19 04:56:57;;;;;;;16.13;4.75;;;17.50;99.90;;;;;;5100295;28;20040;-74
2022/06/19 04:59:23;;;;;;;17.45;5.13;;;17.70;99.90;;;;;;5103013;28;20109;-74
2022/06/19 05:01:50;;;;;;;15.25;5.57;;;17.70;99.90;;;;;;5102665;28;20048;-73
2022/06/19 05:04:17;;;;;;;22.63;5.15;;;17.70;99.90;;;;;;5099951;28;20051;-74
2022/06/19 05:06:44;;;;;;;24.52;5.20;;;17.80;99.90;;;;;;5099939;28;20571;-74
2022/06/19 05:09:10;;;;;;;17.35;5.88;;;17.80;99.90;;;;;;5104580;28;20040;-75
2022/06/19 05:11:37;;;;;;;22.55;5.22;;;17.90;99.90;;;;;;5101891;28;20048;-74
2022/06/19 05:14:04;;;;;;;15.52;4.60;;;18.00;99.90;;;;;;5100653;28;20137;-74
2022/06/19 05:16:31;;;;;;;26.15;5.40;;;18.00;99.90;;;;;;5099287;28;20044;-73
2022/06/19 05:19:00;;;;;;;19.75;5.10;;;18.10;99.90;;;;;;5099932;28;20428;-74
2022/06/19 05:21:27;;;;;;;18.20;5.63;;;18.20;99.90;;;;;;5102302;28;20036;-74
2022/06/19 05:23:54;;;;;;;;;;;18.30;99.90;;;;;;5100338;28;20438;-73
2022/06/19 05:26:24;;;;;;;23.20;5.38;;;18.40;99.90;;;;;;5095075;28;19920;-74
2022/06/19 05:28:53;;;;;;;21.25;5.68;;;18.50;99.90;;;;;;5102954;28;20399;-73
2022/06/19 05:31:20;;;;;;;17.90;5.88;;;18.60;99.90;;;;;;5101308;28;20039;-74
2022/06/19 05:33:47;;;;;;;19.70;5.60;;;18.70;99.90;;;;;;5099519;28;20036;-74
2022/06/19 05:36:15;;;;;;;17.15;5.07;;;18.90;99.90;;;;;;5102526;28;20550;-74
2022/06/19 05:38:42;;;;;;;21.05;5.57;;;18.90;99.90;;;;;;5089663;28;20472;-74
2022/06/19 05:41:09;;;;;;;20.13;5.28;;;19.00;99.90;;;;;;5100263;28;20039;-74
2022/06/19 05:43:36;;;;;;;15.27;5.60;;;19.10;99.90;;;;;;5101283;28;20565;-74
2022/06/19 05:46:06;;;;;;;21.20;5.47;;;19.20;99.90;;;;;;5108046;28;20047;-74
2022/06/19 05:48:34;;;;;;;15.88;5.05;;;19.20;99.90;;;;;;5105316;28;20040;-74
2022/06/19 05:51:04;;;;;;;17.08;4.93;;;19.30;99.90;;;;;;5101464;28;20450;-74
2022/06/19 05:53:34;;;;;;;15.55;4.88;;;19.30;99.90;;;;;;5106775;28;20039;-74
2022/06/19 05:56:01;;;;;;;18.80;4.85;;;19.40;99.90;;;;;;5105449;28;20085;-74
2022/06/19 05:58:28;;;;;;;14.32;5.07;;;19.40;99.90;;;;;;5103993;28;20111;-74
2022/06/19 06:00:55;;;;;;;20.00;5.22;;;19.60;99.90;;;;;;5104436;28;20097;-74
2022/06/19 06:03:23;;;;;;;13.80;5.32;;;19.60;99.90;;;;;;5103157;28;20036;-74
2022/06/19 06:05:50;;;;;;;19.60;5.28;;;19.60;99.90;;;;;;5103881;28;20399;-74
2022/06/19 06:08:18;;;;;;;22.88;5.93;;;19.60;99.90;;;;;;5104455;28;20436;-73
2022/06/19 06:10:49;;;;;;;19.50;5.47;;;19.80;99.90;;;;;;5106027;28;20040;-75
2022/06/19 06:13:16;;;;;;;15.38;5.15;;;19.90;99.90;;;;;;5103322;28;20032;-74
2022/06/19 06:15:44;;;;;;;;;;;19.90;99.90;;;;;;5103244;28;20036;-75
2022/06/19 06:18:11;;;;;;;17.48;5.07;;;20.00;99.90;;;;;;5104148;28;20011;-74
2022/06/19 06:20:38;;;;;;;15.30;5.50;;;20.10;99.90;;;;;;5105189;28;21295;-73
2022/06/19 06:23:05;;;;;;;15.10;4.80;;;20.20;99.90;;;;;;5105218;28;20051;-74
2022/06/19 06:25:32;;;;;;;;;;;20.30;99.90;;;;;;5104439;28;20043;-74
2022/06/19 06:27:58;;;;;;;21.23;5.57;;;20.50;99.90;;;;;;5100876;28;19973;-74
2022/06/19 06:30:25;;;;;;;17.65;5.43;;;20.60;99.90;;;;;;5106816;28;20649;-74
2022/06/19 06:33:03;;;;;;;19.08;5.13;;;20.60;99.90;;;;;;5104616;28;20039;-74
2022/06/19 06:35:30;;;;;;;20.00;5.85;;;20.80;99.90;;;;;;5102972;28;20452;-74
2022/06/19 06:38:00;;;;;;;18.63;4.78;;;21.00;99.90;;;;;;5107090;28;20047;-74
2022/06/19 06:40:28;;;;;;;17.95;5.07;;;21.10;99.90;;;;;;5100940;28;20429;-74
2022/06/19 06:42:55;;;;;;;22.38;5.13;;;21.30;99.90;;;;;;5109444;28;20488;-74
2022/06/19 06:45:22;;;;;;;;;;;21.50;99.90;;;;;;5098021;28;20085;-74
2022/06/19 06:47:50;;;;;;;18.27;5.05;;;21.60;99.90;;;;;;5112497;28;19926;-73
2022/06/19 06:50:17;;;;;;;23.52;5.15;;;21.80;99.90;;;;;;5113455;28;20048;-74
2022/06/19 06:52:44;;;;;;;19.48;5.15;;;22.00;99.90;;;;;;5111099;28;20056;-74
2022/06/19 06:55:11;;;;;;;22.50;6.15;;;22.10;99.90;;;;;;5097738;28;20043;-74
2022/06/19 06:57:39;;;;;;;28.70;5.95;;;22.20;99.90;;;;;;5113786;28;20492;-73
2022/06/19 07:00:07;;;;;;;21.85;5.18;;;22.40;99.90;;;;;;5112595;28;20043;-74
2022/06/19 07:02:34;;;;;;;17.73;5.32;;;22.50;99.90;;;;;;5093144;28;20070;-74
2022/06/19 07:05:01;;;;;;;24.35;5.57;;;22.60;99.90;;;;;;5113998;28;20453;-74
2022/06/19 07:07:28;;;;;;;23.63;4.95;;;22.80;99.90;;;;;;5113627;28;20093;-74
2022/06/19 07:09:54;;;;;;;18.98;5.72;;;23.00;99.90;;;;;;5108836;28;20059;-74
2022/06/19 07:12:21;;;;;;;14.00;5.07;;;23.20;99.90;;;;;;5099723;28;20065;-75
2022/06/19 07:14:48;;;;;;;21.77;5.70;;;23.40;99.90;;;;;;5113450;28;20484;-74
2022/06/19 07:17:15;;;;;;;19.73;5.85;;;23.40;99.90;;;;;;5113281;28;20054;-74
2022/06/19 07:19:42;;;;;;;17.98;5.15;;;23.50;99.90;;;;;;5102468;28;20071;-75
2022/06/19 07:22:14;;;;;;;17.35;5.75;;;23.60;99.90;;;;;;5105949;28;20032;-74
2022/06/19 07:24:42;;;;;;;26.00;5.57;;;23.80;99.90;;;;;;5113253;28;20054;-74
2022/06/19 07:27:09;;;;;;;16.73;5.32;;;23.90;99.80;;;;;;5113105;28;20043;-74
2022/06/19 07:29:43;;;;;;;;;;;24.10;99.90;;;;;;5095113;28;20036;-74
2022/06/19 07:32:11;;;;;;;18.73;5.53;;;24.30;99.90;;;;;;5112854;28;20264;-74
2022/06/19 07:34:39;;;;;;;17.85;5.10;;;24.50;99.90;;;;;;5112942;28;20509;-74
2022/06/19 07:37:06;;;;;;;14.77;5.28;;;24.70;98.90;;;;;;5107428;28;20039;-74
2022/06/19 07:39:34;;;;;;;11.40;5.47;;;24.80;98.80;;;;;;5097520;22;20044;-73
2022/06/19 07:42:04;;;;;;;17.20;5.63;;;24.90;99.80;;;;;;5093384;28;20027;-73
2022/06/19 07:44:31;;;;;;;18.00;5.47;;;25.10;98.80;;;;;;5100202;28;20040;-71
2022/06/19 07:52:42;;;;;;;14.00;5.30;;;25.50;97.70;;;;;;5085796;28;20067;-74
2022/06/19 07:55:12;;;;;;;21.25;6.05;;;25.60;98.70;;;;;;5092187;28;20036;-74
2022/06/19 07:57:38;;;;;;;17.02;5.50;;;25.70;98.00;;;;;;5092277;28;20036;-73
2022/06/19 08:00:17;;;;;;;21.73;5.60;;;25.80;98.30;;;;;;5107618;28;20090;-73
2022/06/19 08:02:49;;;;;;;16.55;6.38;;;25.70;97.40;;;;;;5102691;28;20057;-73
2022/06/19 08:05:17;;;;;;;18.45;5.95;;;25.90;97.00;;;;;;5101277;28;20070;-74
2022/06/19 08:07:44;;;;;;;19.58;7.03;;;26.10;97.80;;;;;;5109099;28;20043;-74
2022/06/19 08:10:17;;;;;;;14.82;6.22;;;26.10;97.40;;;;;;5111515;28;20043;-74
2022/06/19 08:12:46;;;;;;;18.10;6.35;;;26.10;98.20;;;;;;5109986;28;20043;-73
2022/06/19 08:15:14;;;;;;;17.02;6.03;;;26.20;96.90;;;;;;5105224;28;20044;-74
2022/06/19 08:17:40;;;;;;;20.20;6.43;;;26.50;96.80;;;;;;5111988;28;20062;-74
2022/06/19 08:20:08;;;;;;;17.50;6.55;;;26.60;97.50;;;;;;5110718;28;20036;-74
2022/06/19 08:22:35;;;;;;;12.98;6.10;;;26.50;96.10;;;;;;5102953;28;20050;-74
2022/06/19 08:25:01;;;;;;;16.67;6.20;;;26.70;97.10;;;;;;5111985;28;20043;-74
2022/06/19 08:27:28;;;;;;;18.25;6.60;;;26.90;98.00;;;;;;5111615;28;20496;-74
2022/06/19 08:29:55;;;;;;;14.32;6.07;;;27.10;96.80;;;;;;5107746;28;20056;-72
2022/06/19 08:32:22;;;;;;;19.38;6.13;;;27.00;95.90;;;;;;5106418;28;20035;-75
2022/06/19 08:34:48;;;;;;;15.85;5.97;;;27.10;95.90;;;;;;5111591;28;20097;-74
2022/06/19 08:37:15;;;;;;;16.38;6.35;;;27.30;96.30;;;;;;5110931;28;20070;-74
2022/06/19 08:39:46;;;;;;;19.65;6.97;;;27.50;95.50;;;;;;5102908;28;20043;-74
2022/06/19 08:42:33;;;;;;;16.42;6.85;;;27.60;94.60;;;;;;5110638;28;20081;-74
2022/06/19 08:45:12;;;;;;;18.00;6.93;;;27.50;95.50;;;;;;5099132;28;20097;-73
2022/06/19 08:48:06;;;;;;;13.80;6.22;;;27.70;95.10;;;;;;5089934;28;20044;-75
2022/06/19 08:50:59;;;;;;;17.25;7.90;;;27.90;94.90;;;;;;5090793;28;20051;-73
2022/06/19 08:53:53;;;;;;;18.02;7.40;;;28.10;94.80;;;;;;5099897;28;20105;-73
2022/06/19 08:56:30;;;;;;;17.95;6.82;;;28.30;95.20;;;;;;5091461;28;20040;-74
2022/06/19 08:59:16;;;;;;;19.17;6.57;;;28.30;94.00;;;;;;5091228;28;20043;-73
2022/06/19 09:02:05;;;;;;;17.00;6.78;;;28.50;94.60;;;;;;5099502;28;20116;-73
2022/06/19 09:08:23;;;;;;;11.43;6.10;;;28.70;93.60;;;;;;5111650;28;20055;-73
2022/06/19 09:11:09;;;;;;;16.52;6.22;;;28.70;93.00;;;;;;5103117;28;20040;-74
2022/06/19 09:14:09;;;;;;;19.38;6.97;;;28.90;92.90;;;;;;5108158;28;20043;-74
2022/06/19 09:16:57;;;;;;;18.38;6.55;;;28.60;92.80;;;;;;5111219;28;20051;-73
2022/06/19 09:19:33;;;;;;;14.02;6.20;;;28.70;92.10;;;;;;5105495;28;20119;-73
2022/06/19 09:22:02;;;;;;;13.93;6.53;;;28.80;93.20;;;;;;5094603;28;20412;-73
2022/06/19 09:24:53;;;;;;;15.82;6.85;;;28.70;95.70;;;;;;5095166;28;20036;-72
2022/06/19 09:27:30;;;;;;;13.63;6.30;;;28.60;95.50;;;;;;5101601;28;20036;-72
2022/06/19 09:30:07;;;;;;;23.75;7.03;;;28.60;96.70;;;;;;5093086;28;20055;-73
2022/06/19 09:32:51;;;;;;;17.95;6.40;;;28.60;96.20;;;;;;5094775;28;20044;-73
2022/06/19 09:36:06;;;;;;;23.48;7.15;;;28.70;96.20;;;;;;5095284;28;20035;-72
2022/06/19 09:38:45;;;;;;;15.23;6.78;;;28.80;95.80;;;;;;5105534;28;20058;-72
2022/06/19 09:41:19;;;;;;;23.95;6.28;;;29.00;95.60;;;;;;5114790;28;20076;-72
2022/06/19 09:43:52;;;;;;;21.40;7.50;;;29.10;95.10;;;;;;5110793;28;20044;-72
2022/06/19 09:46:48;;;;;;;12.57;6.40;;;29.00;94.20;;;;;;5106353;28;20067;-73
2022/06/19 09:49:27;;;;;;;13.60;6.25;;;29.00;94.40;;;;;;5106085;28;20040;-73
2022/06/19 09:52:11;;;;;;;18.08;6.68;;;29.00;93.60;;;;;;5105126;28;20043;-72
2022/06/19 09:55:05;;;;;;;16.83;7.00;;;29.30;94.20;;;;;;5104401;28;20051;-73
2022/06/19 09:57:43;;;;;;;14.40;6.45;;;29.50;93.90;;;;;;5104522;28;20096;-73
2022/06/19 10:00:17;;;;;;;15.27;6.25;;;29.40;91.90;;;;;;5103417;28;20032;-73
2022/06/19 10:03:41;;;;;;;13.48;6.35;;;29.40;91.70;;;;;;5106355;28;20480;-72
2022/06/19 10:06:37;;;;;;;11.98;5.82;;;29.80;91.60;;;;;;5104215;28;20054;-73
2022/06/19 10:09:33;;;;;;;18.63;7.18;;;30.00;91.30;;;;;;5104634;28;20096;-73
2022/06/19 10:12:02;;;;;;;17.00;7.03;;;30.20;90.00;;;;;;5106340;28;20055;-73
2022/06/19 10:14:37;;;;;;;13.75;6.35;;;30.40;91.00;;;;;;5105881;28;20102;-73
2022/06/19 10:17:23;;;;;;;16.40;6.88;;;30.60;92.10;;;;;;5114168;28;20043;-73
2022/06/19 10:20:16;;;;;;;15.05;6.78;;;30.90;91.10;;;;;;5113514;28;20044;-74
2022/06/19 10:23:04;;;;;;;20.55;6.32;;;31.20;90.90;;;;;;5105547;28;20567;-73
2022/06/19 10:25:45;;;;;;;22.20;7.00;;;31.30;89.20;;;;;;5114261;28;20453;-73
2022/06/19 10:29:04;;;;;;;17.15;6.75;;;31.40;88.70;;;;;;5107106;28;20040;-73
2022/06/19 10:32:05;;;;;;;15.85;6.88;;;31.50;89.00;;;;;;5086170;28;20055;-74
2022/06/19 10:34:47;;;;;;;24.42;12.50;;;31.60;90.10;;;;;;5114015;28;20441;-75
2022/06/19 10:37:23;;;;;;;17.30;6.95;;;31.50;84.80;;;;;;5113483;28;20039;-74
2022/06/19 10:40:18;;;;;;;11.25;6.60;;;31.50;86.80;;;;;;5105165;28;20100;-73
2022/06/19 10:43:06;;;;;;;13.95;6.68;;;31.70;85.50;;;;;;5093394;28;20040;-74
2022/06/19 10:45:46;;;;;;;13.15;6.45;;;31.80;85.40;;;;;;5093987;28;20503;-74
2022/06/19 10:48:38;;;;;;;16.10;6.85;;;31.70;81.00;;;;;;5101743;28;20032;-73
2022/06/19 10:51:17;;;;;;;15.73;6.63;;;31.90;85.90;;;;;;5092923;28;20044;-73
2022/06/19 10:54:06;;;;;;;12.65;6.72;;;32.00;88.50;;;;;;5093874;28;20089;-73
2022/06/19 10:56:39;;;;;;;16.60;6.78;;;32.10;90.20;;;;;;5105052;28;20407;-73
2022/06/19 10:59:06;;;;;;;11.90;6.30;;;32.20;91.20;;;;;;5105267;28;20054;-72
2022/06/19 11:04:46;;;;;;;16.67;7.15;;;32.20;90.40;;;;;;5101396;28;20476;-73
2022/06/19 11:07:16;;;;;;;15.95;6.57;;;32.30;90.70;;;;;;5102562;28;20052;-72
2022/06/19 11:09:46;;;;;;;12.18;6.90;;;32.30;87.60;;;;;;5093051;28;20040;-74
2022/06/19 11:12:23;;;;;;;13.80;6.70;;;32.30;88.00;;;;;;5098779;28;20376;-72
2022/06/19 11:14:53;;;;;;;;;;;32.20;88.70;;;;;;5105484;28;20040;-72
2022/06/19 11:17:38;;;;;;;16.10;6.65;;;32.20;87.20;;;;;;5113463;28;19926;-73
2022/06/19 11:20:25;;;;;;;17.02;5.88;;;32.40;89.60;;;;;;5105201;28;20047;-74
2022/06/19 11:23:07;;;;;;;16.02;6.63;;;32.40;87.20;;;;;;5103416;28;20492;-73
2022/06/19 11:25:39;;;;;;;14.98;6.30;;;32.40;85.30;;;;;;5102237;28;20428;-73
2022/06/19 11:28:15;;;;;;;15.95;6.63;;;32.40;87.80;;;;;;5095826;28;20040;-72
2022/06/19 11:30:45;;;;;;;16.17;6.57;;;32.50;87.60;;;;;;5093782;28;20048;-72
2022/06/19 11:33:29;;;;;;;12.80;6.28;;;32.50;86.60;;;;;;5104378;28;20073;-72
2022/06/19 11:36:00;;;;;;;23.80;6.25;;;32.50;86.70;;;;;;5113170;28;20040;-73
2022/06/19 11:38:33;;;;;;;14.35;6.00;;;32.50;85.00;;;;;;5111125;28;20050;-73
2022/06/19 11:41:00;;;;;;;18.65;5.85;;;32.70;86.80;;;;;;5100429;28;20047;-72
2022/06/19 11:43:32;;;;;;;16.55;5.57;;;32.80;82.80;;;;;;5092348;28;20048;-73
2022/06/19 11:46:15;;;;;;;18.80;5.45;;;32.80;82.30;;;;;;5092492;28;20504;-72
2022/06/19 11:48:42;;;;;;;17.42;7.07;;;33.00;80.60;;;;;;5095981;28;20052;-72
2022/06/19 11:51:23;;;;;;;27.48;6.20;;;33.20;83.80;;;;;;5102428;28;20040;-72
2022/06/19 11:53:54;;;;;;;13.27;5.50;;;33.40;84.50;;;;;;5100865;28;20051;-72
2022/06/19 11:56:34;;;;;;;20.10;5.78;;;33.50;80.10;;;;;;5103310;28;20122;-72
2022/06/19 11:59:03;;;;;;;18.42;5.63;;;33.40;80.70;;;;;;5101610;28;20044;-71
2022/06/19 12:01:38;;;;;;;22.98;6.22;;;33.50;84.30;;;;;;5096934;28;20042;-71
2022/06/19 12:04:19;;;;;;;14.75;6.38;;;33.60;82.40;;;;;;5102808;28;20123;-72
2022/06/19 12:06:57;;;;;;;17.98;5.10;;;33.70;78.50;;;;;;5101566;28;20054;-72
2022/06/19 12:09:32;;;;;;;19.88;6.40;;;33.80;81.00;;;;;;5100427;28;20047;-71
2022/06/19 12:12:01;;;;;;;18.08;5.03;;;33.90;76.70;;;;;;5100534;28;20529;-72
2022/06/19 12:14:54;;;;;;;18.17;5.97;;;34.00;80.30;;;;;;5104528;28;20040;-71
2022/06/19 12:17:25;;;;;;;17.38;5.72;;;34.20;77.60;;;;;;5100286;28;20051;-72
2022/06/19 12:20:00;;;;;;;24.92;6.25;;;34.30;80.60;;;;;;5096193;28;20420;-72
2022/06/19 12:22:34;;;;;;;18.85;5.63;;;34.40;80.00;;;;;;5097194;28;20059;-71
2022/06/19 12:25:11;;;;;;;20.60;6.10;;;34.40;79.70;;;;;;5099137;28;20647;-72
2022/06/19 12:27:47;;;;;;;15.32;5.95;;;34.40;76.30;;;;;;5110371;28;20039;-71
2022/06/19 12:30:25;;;;;;;15.82;5.97;;;34.50;78.30;;;;;;5110237;28;20055;-71
2022/06/19 12:32:55;;;;;;;16.85;5.40;;;34.50;76.60;;;;;;5108872;28;20122;-71
2022/06/19 12:35:32;;;;;;;14.02;5.28;;;34.50;78.30;;;;;;5107956;28;20039;-71
2022/06/19 12:37:59;;;;;;;;;;;34.60;75.40;;;;;;5099192;28;20040;-71
2022/06/19 12:40:36;;;;;;;19.33;5.80;;;34.70;76.40;;;;;;5097762;28;19965;-71
2022/06/19 12:43:19;;;;;;;23.67;5.97;;;34.70;74.40;;;;;;5107163;28;20281;-71
2022/06/19 12:45:58;;;;;;;13.65;5.57;;;34.40;70.60;;;;;;5103332;28;20059;-72
2022/06/19 12:48:45;;;;;;;19.98;6.78;;;34.40;72.20;;;;;;5111154;28;20059;-71
2022/06/19 12:51:28;;;;;;;16.03;5.90;;;34.30;76.20;;;;;;5101990;28;20032;-73
2022/06/19 12:54:03;;;;;;;25.55;6.43;;;34.30;73.40;;;;;;5105213;28;20040;-74
2022/06/19 12:57:00;;;;;;;17.33;6.35;;;34.40;72.30;;;;;;5116024;28;20062;-74
2022/06/19 12:59:59;;;;;;;23.13;6.25;;;34.50;76.80;;;;;;5115661;27;20051;-73
2022/06/19 13:02:33;;;;;;;;;;;34.70;75.60;;;;;;5114188;28;20531;-73
2022/06/19 13:05:41;;;;;;;15.63;5.78;;;34.50;74.20;;;;;;5114597;28;19953;-73
2022/06/19 13:08:16;;;;;;;16.27;6.03;;;34.70;74.60;;;;;;5088717;27;20055;-73
2022/06/19 13:11:17;;;;;;;18.38;5.65;;;34.70;73.60;;;;;;5107407;28;20104;-73
2022/06/19 13:13:54;;;;;;;23.38;5.80;;;34.70;75.80;;;;;;5080644;27;20051;-72
2022/06/19 13:16:32;;;;;;;17.55;5.32;;;34.90;75.00;;;;;;5117033;27;20051;-73
2022/06/19 13:19:22;;;;;;;18.90;5.35;;;34.90;74.50;;;;;;5096197;28;20122;-73
2022/06/19 13:22:18;;;;;;;17.08;5.72;;;35.10;73.10;;;;;;5097627;28;20085;-73
2022/06/19 13:24:59;;;;;;;20.65;6.07;;;35.10;72.10;;;;;;5106358;28;20036;-73